Pearl Of Scandinavia — OWFU2 — position and weather

sailwx.info

Track history (hours):
 
Tides and Currents Weather Stations Pressure Air Temp Water Temp Dewpoint Dewpoint Depression Visibility Wind Speed Wind Dir Waves Ship Positions

Pearl Of Scandinavia

Last reported at 2014-Jul-23 07:34 UTC. Time now 2014-Jul-23 08:11 UTC.
Position N 55°42' E 012°36'.

Length 176.4 m; beam 34 m; draft 6.215 m.

Type: Ship. MMSI: 219945000.

Date/timePositionNaut miles runAvg speedWind from/ knotsBaromVisibWave heightAir tempDewpointWater temp
2014-Jul-23 07:34N 55°42' E 012°36'1211.7
2014-Jul-23 06:33N 55°54' E 012°40'1414.1
2014-Jul-23 05:33N 56°07' E 012°31'1514.9
2014-Jul-23 04:33N 56°21' E 012°22'1615.9
2014-Jul-23 03:33N 56°37' E 012°15'1716.4
2014-Jul-23 02:33N 56°53' E 012°08'1716.4
2014-Jul-23 01:32N 57°08' E 011°57'1515.8
2014-Jul-23 00:33N 57°22' E 011°42'1616.0
2014-Jul-22 23:33N 57°36' E 011°28'1615.8
2014-Jul-22 22:33N 57°50' E 011°16'1616.3
2014-Jul-22 21:33N 58°06' E 011°07'2016.2
2014-Jul-22 20:21N 58°24' E 010°56'2916.2
2014-Jul-22 18:33N 58°53' E 010°44'1716.9
2014-Jul-22 17:33N 59°09' E 010°38'1716.7
2014-Jul-22 16:33N 59°26' E 010°33'2014.9
2014-Jul-22 15:14N 59°46' E 010°33'1014.2
2014-Jul-22 14:33N 59°54' E 010°43'1 0.6
2014-Jul-22 13:27N 59°54' E 010°45'0 0.0
2014-Jul-22 12:33N 59°54' E 010°45'0 0.0
2014-Jul-22 11:30N 59°54' E 010°45'0 0.0
2014-Jul-22 10:33N 59°54' E 010°45'0 0.0
2014-Jul-22 09:33N 59°54' E 010°45'0 0.0
2014-Jul-22 08:33N 59°54' E 010°45'0 0.1
2014-Jul-22 07:33N 59°54' E 010°45'2713.3
2014-Jul-22 05:33N 59°28' E 010°34'1615.9
2014-Jul-22 04:33N 59°12' E 010°38'1615.8
2014-Jul-22 03:33N 58°57' E 010°42'1716.0
2014-Jul-22 02:29N 58°39' E 010°47'2116.9
2014-Jul-22 01:14N 58°19' E 010°59'1217.1
2014-Jul-22 00:33N 58°08' E 011°06'1716.8
2014-Jul-21 23:33N 57°52' E 011°15'1716.5
2014-Jul-21 22:33N 57°37' E 011°25'1716.6
2014-Jul-21 21:33N 57°21' E 011°34'1716.6
2014-Jul-21 20:33N 57°05' E 011°43'416.7
2014-Jul-21 20:18N 57°01' E 011°45'1215.8
2014-Jul-21 19:33N 56°51' E 011°56'1616.0
2014-Jul-21 18:33N 56°36' E 012°10'1615.9
2014-Jul-21 17:33N 56°22' E 012°21'1616.4
2014-Jul-21 16:33N 56°07' E 012°33'1616.0
2014-Jul-21 15:33N 55°52' E 012°45'1111.4
2014-Jul-21 14:33N 55°42' E 012°36'0 0.0
2014-Jul-21 13:31N 55°42' E 012°36'0 0.0
2014-Jul-21 12:31N 55°42' E 012°36'0 0.0
2014-Jul-21 11:31N 55°42' E 012°36'0 0.0
2014-Jul-21 10:31N 55°42' E 012°36'0 0.0
2014-Jul-21 09:31N 55°42' E 012°36'0 0.0
2014-Jul-21 08:31N 55°42' E 012°36'0 0.3
2014-Jul-21 07:33N 55°42' E 012°36'1211.7
2014-Jul-21 06:33N 55°54' E 012°40'1413.9
2014-Jul-21 05:33N 56°07' E 012°31'1515.0
2014-Jul-21 04:33N 56°21' E 012°22'1615.8
2014-Jul-21 03:33N 56°36' E 012°16'1615.8
2014-Jul-21 02:33N 56°52' E 012°09'1616.3
2014-Jul-21 01:33N 57°07' E 011°58'1717.1
2014-Jul-21 00:33N 57°22' E 011°42'1717.1
2014-Jul-20 23:33N 57°37' E 011°27'1817.7
2014-Jul-20 22:33N 57°53' E 011°15'1817.6
2014-Jul-20 21:33N 58°10' E 011°05'4116.9
2014-Jul-20 19:07N 58°50' E 010°45'1017.2
2014-Jul-20 18:33N 58°59' E 010°41'1717.4
2014-Jul-20 17:33N 59°17' E 010°36'1717.2
2014-Jul-20 16:33N 59°34' E 010°37'2014.8
2014-Jul-20 15:13N 59°54' E 010°41'2 3.0
2014-Jul-20 14:33N 59°54' E 010°45'0 0.0
2014-Jul-20 13:29N 59°54' E 010°45'0 0.0
2014-Jul-20 12:29N 59°54' E 010°45'0 0.0
2014-Jul-20 11:29N 59°54' E 010°45'0 0.0
2014-Jul-20 10:29N 59°54' E 010°45'0 0.0
2014-Jul-20 09:32N 59°54' E 010°45'0 0.0
2014-Jul-20 08:17N 59°54' E 010°45'0 0.2
2014-Jul-20 07:33N 59°54' E 010°45'2713.3
2014-Jul-20 05:30N 59°27' E 010°34'1516.2
2014-Jul-20 04:33N 59°12' E 010°39'1716.7
2014-Jul-20 03:33N 58°56' E 010°43'5016.4
2014-Jul-20 00:30N 58°07' E 011°07'1616.7
2014-Jul-19 23:33N 57°52' E 011°16'1615.9
2014-Jul-19 22:33N 57°37' E 011°25'1615.9
2014-Jul-19 21:33N 57°22' E 011°34'1616.4
2014-Jul-19 20:33N 57°06' E 011°42'1716.1
2014-Jul-19 19:28N 56°50' E 011°52'1516.2
2014-Jul-19 18:33N 56°35' E 011°59'1616.0
2014-Jul-19 17:33N 56°22' E 012°14'1716.7
2014-Jul-19 16:33N 56°08' E 012°32'1716.6
2014-Jul-19 15:33N 55°53' E 012°44'1211.9
2014-Jul-19 14:33N 55°42' E 012°36'0 0.0
2014-Jul-19 13:34N 55°42' E 012°36'0 0.0
2014-Jul-19 12:34N 55°42' E 012°36'0 0.0
2014-Jul-19 11:34N 55°42' E 012°36'0 0.0
2014-Jul-19 10:34N 55°42' E 012°36'0 0.0
2014-Jul-19 09:34N 55°42' E 012°36'0 0.0
2014-Jul-19 08:31N 55°42' E 012°36'0 0.3
2014-Jul-19 07:33N 55°42' E 012°36'1211.9
2014-Jul-19 06:33N 55°54' E 012°40'1413.9
2014-Jul-19 05:33N 56°07' E 012°31'1515.2
2014-Jul-19 04:33N 56°21' E 012°22'1615.8
2014-Jul-19 03:33N 56°37' E 012°16'1616.4
2014-Jul-19 02:33N 56°53' E 012°09'1716.6
2014-Jul-19 01:33N 57°08' E 011°57'1616.6
2014-Jul-19 00:33N 57°22' E 011°40'1717.2
2014-Jul-18 23:33N 57°37' E 011°26'1817.5
2014-Jul-18 22:33N 57°54' E 011°14'1717.0
2014-Jul-18 21:33N 58°10' E 011°05'4216.7
2014-Jul-18 19:04N 58°50' E 010°45'917.2
2014-Jul-18 18:33N 58°59' E 010°42'1717.2
2014-Jul-18 17:33N 59°16' E 010°36'1816.6
2014-Jul-18 16:30N 59°34' E 010°37'1914.8
2014-Jul-18 15:12N 59°53' E 010°39'3 4.6
2014-Jul-18 14:33N 59°54' E 010°45'0 0.0
2014-Jul-18 13:28N 59°54' E 010°45'0 0.0
2014-Jul-18 12:28N 59°54' E 010°45'0 0.0
2014-Jul-18 11:31N 59°54' E 010°45'0 0.0
2014-Jul-18 10:31N 59°54' E 010°45'0 0.0
2014-Jul-18 09:31N 59°54' E 010°45'0 0.0
2014-Jul-18 08:31N 59°54' E 010°45'0 0.2
2014-Jul-18 07:33N 59°54' E 010°45'2813.0
2014-Jul-18 05:23N 59°26' E 010°34'1416.3
2014-Jul-18 04:33N 59°13' E 010°39'1615.7
2014-Jul-18 03:33N 58°57' E 010°42'5516.4
2014-Jul-18 00:11N 58°04' E 011°08'1016.7
2014-Jul-17 23:33N 57°54' E 011°14'1615.9
2014-Jul-17 22:33N 57°39' E 011°23'1616.1
2014-Jul-17 21:33N 57°24' E 011°32'1616.1
2014-Jul-17 20:33N 57°08' E 011°41'1615.9
2014-Jul-17 19:33N 56°53' E 011°52'1515.4
2014-Jul-17 18:33N 56°40' E 012°07'1616.2
2014-Jul-17 17:33N 56°25' E 012°18'1616.1
2014-Jul-17 16:33N 56°11' E 012°30'1616.0
2014-Jul-17 15:33N 55°57' E 012°43'1414.3
2014-Jul-17 14:33N 55°43' E 012°37'1 0.9
2014-Jul-17 13:32N 55°42' E 012°36'0 0.0
2014-Jul-17 12:32N 55°42' E 012°36'0 0.0
2014-Jul-17 11:33N 55°42' E 012°36'0 0.0
2014-Jul-17 10:32N 55°42' E 012°36'0 0.0
2014-Jul-17 09:32N 55°42' E 012°36'0 0.0
2014-Jul-17 08:33N 55°42' E 012°36'0 0.2
2014-Jul-17 07:33N 55°42' E 012°36'1110.5
2014-Jul-17 06:33N 55°53' E 012°40'1414.3
2014-Jul-17 05:33N 56°06' E 012°33'1616.3
2014-Jul-17 04:33N 56°21' E 012°21'1716.7
2014-Jul-17 03:33N 56°37' E 012°13'1716.9
2014-Jul-17 02:33N 56°53' E 012°04'1716.8
2014-Jul-17 01:33N 57°09' E 011°55'1716.7
2014-Jul-17 00:33N 57°24' E 011°39'1817.8
2014-Jul-16 23:34N 57°40' E 011°26'1716.9
2014-Jul-16 22:33N 57°56' E 011°13'1615.9
2014-Jul-16 21:33N 58°11' E 011°03'4715.8
2014-Jul-16 18:33N 58°57' E 010°42'1716.7
2014-Jul-16 17:33N 59°13' E 010°37'1616.4
2014-Jul-16 16:33N 59°30' E 010°34'2512.6
2014-Jul-16 14:33N 59°54' E 010°45'0 0.0
2014-Jul-16 13:33N 59°54' E 010°45'0 0.0
2014-Jul-16 12:25N 59°54' E 010°45'0 0.0
2014-Jul-16 11:21N 59°54' E 010°45'0 0.0
2014-Jul-16 10:24N 59°54' E 010°45'0 0.0
2014-Jul-16 09:28N 59°54' E 010°45'0 0.0
2014-Jul-16 08:28N 59°54' E 010°45'0 0.4
2014-Jul-16 07:33N 59°54' E 010°44'1813.1
2014-Jul-16 06:11N 59°36' E 010°37'1117.5
2014-Jul-16 05:33N 59°26' E 010°34'1818.2
2014-Jul-16 04:33N 59°08' E 010°40'1717.1
2014-Jul-16 03:33N 58°51' E 010°44'5217.2
2014-Jul-16 00:33N 58°01' E 011°12'1717.0
2014-Jul-15 23:33N 57°45' E 011°21'1716.6
2014-Jul-15 22:33N 57°29' E 011°29'1716.9
2014-Jul-15 21:33N 57°13' E 011°38'1616.4
2014-Jul-15 20:33N 56°57' E 011°48'1615.6
2014-Jul-15 19:33N 56°44' E 012°03'1716.7
2014-Jul-15 18:33N 56°29' E 012°15'1716.9
2014-Jul-15 17:33N 56°13' E 012°28'1716.7
2014-Jul-15 16:33N 55°59' E 012°42'1615.5
2014-Jul-15 15:33N 55°43' E 012°39'2 2.0
2014-Jul-15 14:33N 55°42' E 012°36'0 0.0
2014-Jul-15 13:31N 55°42' E 012°36'0 0.0
2014-Jul-15 12:31N 55°42' E 012°36'0 0.0
2014-Jul-15 11:31N 55°42' E 012°36'0 0.0
2014-Jul-15 10:31N 55°42' E 012°36'0 0.0
2014-Jul-15 09:31N 55°42' E 012°36'0 0.0
2014-Jul-15 08:31N 55°42' E 012°36'0 0.3
2014-Jul-15 07:34N 55°42' E 012°36'1111.2
2014-Jul-15 06:33N 55°53' E 012°40'1413.6
2014-Jul-15 05:33N 56°06' E 012°33'1515.2
2014-Jul-15 04:34N 56°20' E 012°22'1615.5
2014-Jul-15 03:31N 56°36' E 012°13'1616.1
2014-Jul-15 02:33N 56°51' E 012°05'1616.7
2014-Jul-15 01:34N 57°06' E 011°56'1716.5
2014-Jul-15 00:33N 57°21' E 011°43'1616.5
2014-Jul-14 23:34N 57°36' E 011°29'1717.0
2014-Jul-14 22:33N 57°52' E 011°18'1717.0
2014-Jul-14 21:33N 58°08' E 011°07'2216.8
2014-Jul-14 20:16N 58°29' E 010°55'2916.7
2014-Jul-14 18:33N 58°56' E 010°43'1717.0
2014-Jul-14 17:33N 59°13' E 010°37'1716.7
2014-Jul-14 16:33N 59°30' E 010°34'2512.3
2014-Jul-14 14:34N 59°54' E 010°45'0 0.2
2014-Jul-14 13:27N 59°54' E 010°45'0 0.0
2014-Jul-14 12:15N 59°54' E 010°45'0 0.0
2014-Jul-14 11:30N 59°54' E 010°45'0 0.0
2014-Jul-14 10:33N 59°54' E 010°45'0 0.0
2014-Jul-14 09:30N 59°54' E 010°45'0 0.0
2014-Jul-14 08:33N 59°54' E 010°45'1 0.6
2014-Jul-14 07:33N 59°54' E 010°43'1812.3
2014-Jul-14 06:05N 59°36' E 010°38'815.5
2014-Jul-14 05:33N 59°28' E 010°34'1616.1
2014-Jul-14 04:33N 59°12' E 010°39'1616.1
2014-Jul-14 03:33N 58°56' E 010°42'5116.4
2014-Jul-14 00:27N 58°07' E 011°06'1516.9
2014-Jul-13 23:33N 57°53' E 011°15'1716.7
2014-Jul-13 22:33N 57°37' E 011°24'1616.5
2014-Jul-13 21:33N 57°21' E 011°34'1616.5
2014-Jul-13 20:33N 57°05' E 011°43'1615.7
2014-Jul-13 19:33N 56°51' E 011°55'1615.5
2014-Jul-13 18:33N 56°37' E 012°09'1615.7
2014-Jul-13 17:33N 56°23' E 012°20'1616.1
2014-Jul-13 16:33N 56°08' E 012°32'1615.9
2014-Jul-13 15:33N 55°54' E 012°44'1312.9
2014-Jul-13 14:33N 55°42' E 012°36'0 0.0
2014-Jul-13 13:33N 55°42' E 012°36'0 0.0
2014-Jul-13 12:33N 55°42' E 012°36'0 0.0
2014-Jul-13 11:33N 55°42' E 012°36'0 0.0
2014-Jul-13 10:33N 55°42' E 012°36'0 0.0
2014-Jul-13 09:33N 55°42' E 012°36'0 0.0
2014-Jul-13 08:33N 55°42' E 012°36'  
Track history (hours):
 
Tides and Currents Weather Stations Pressure Air Temp Water Temp Dewpoint Dewpoint Depression Visibility Wind Speed Wind Dir Waves Ship Positions

Pearl Of Scandinavia

Last reported at 2014-Jul-23 07:34 UTC. Time now 2014-Jul-23 08:11 UTC.
Position N 55°42' E 012°36'.

Length 176.4 m; beam 34 m; draft 6.215 m.

Type: Ship. MMSI: 219945000.

Date/timePositionNaut miles runAvg speedWind from/ knotsBaromVisibWave heightAir tempDewpointWater temp
2014-Jul-23 07:34N 55°42' E 012°36'1211.7
2014-Jul-23 06:33N 55°54' E 012°40'1414.1
2014-Jul-23 05:33N 56°07' E 012°31'1514.9
2014-Jul-23 04:33N 56°21' E 012°22'1615.9
2014-Jul-23 03:33N 56°37' E 012°15'1716.4
2014-Jul-23 02:33N 56°53' E 012°08'1716.4
2014-Jul-23 01:32N 57°08' E 011°57'1515.8
2014-Jul-23 00:33N 57°22' E 011°42'1616.0
2014-Jul-22 23:33N 57°36' E 011°28'1615.8
2014-Jul-22 22:33N 57°50' E 011°16'1616.3
2014-Jul-22 21:33N 58°06' E 011°07'2016.2
2014-Jul-22 20:21N 58°24' E 010°56'2916.2
2014-Jul-22 18:33N 58°53' E 010°44'1716.9
2014-Jul-22 17:33N 59°09' E 010°38'1716.7
2014-Jul-22 16:33N 59°26' E 010°33'2014.9
2014-Jul-22 15:14N 59°46' E 010°33'1014.2
2014-Jul-22 14:33N 59°54' E 010°43'1 0.6
2014-Jul-22 13:27N 59°54' E 010°45'0 0.0
2014-Jul-22 12:33N 59°54' E 010°45'0 0.0
2014-Jul-22 11:30N 59°54' E 010°45'0 0.0
2014-Jul-22 10:33N 59°54' E 010°45'0 0.0
2014-Jul-22 09:33N 59°54' E 010°45'0 0.0
2014-Jul-22 08:33N 59°54' E 010°45'0 0.1
2014-Jul-22 07:33N 59°54' E 010°45'2713.3
2014-Jul-22 05:33N 59°28' E 010°34'1615.9
2014-Jul-22 04:33N 59°12' E 010°38'1615.8
2014-Jul-22 03:33N 58°57' E 010°42'1716.0
2014-Jul-22 02:29N 58°39' E 010°47'2116.9
2014-Jul-22 01:14N 58°19' E 010°59'1217.1
2014-Jul-22 00:33N 58°08' E 011°06'1716.8
2014-Jul-21 23:33N 57°52' E 011°15'1716.5
2014-Jul-21 22:33N 57°37' E 011°25'1716.6
2014-Jul-21 21:33N 57°21' E 011°34'1716.6
2014-Jul-21 20:33N 57°05' E 011°43'416.7
2014-Jul-21 20:18N 57°01' E 011°45'1215.8
2014-Jul-21 19:33N 56°51' E 011°56'1616.0
2014-Jul-21 18:33N 56°36' E 012°10'1615.9
2014-Jul-21 17:33N 56°22' E 012°21'1616.4
2014-Jul-21 16:33N 56°07' E 012°33'1616.0
2014-Jul-21 15:33N 55°52' E 012°45'1111.4
2014-Jul-21 14:33N 55°42' E 012°36'0 0.0
2014-Jul-21 13:31N 55°42' E 012°36'0 0.0
2014-Jul-21 12:31N 55°42' E 012°36'0 0.0
2014-Jul-21 11:31N 55°42' E 012°36'0 0.0
2014-Jul-21 10:31N 55°42' E 012°36'0 0.0
2014-Jul-21 09:31N 55°42' E 012°36'0 0.0
2014-Jul-21 08:31N 55°42' E 012°36'0 0.3
2014-Jul-21 07:33N 55°42' E 012°36'1211.7
2014-Jul-21 06:33N 55°54' E 012°40'1413.9
2014-Jul-21 05:33N 56°07' E 012°31'1515.0
2014-Jul-21 04:33N 56°21' E 012°22'1615.8
2014-Jul-21 03:33N 56°36' E 012°16'1615.8
2014-Jul-21 02:33N 56°52' E 012°09'1616.3
2014-Jul-21 01:33N 57°07' E 011°58'1717.1
2014-Jul-21 00:33N 57°22' E 011°42'1717.1
2014-Jul-20 23:33N 57°37' E 011°27'1817.7
2014-Jul-20 22:33N 57°53' E 011°15'1817.6
2014-Jul-20 21:33N 58°10' E 011°05'4116.9
2014-Jul-20 19:07N 58°50' E 010°45'1017.2
2014-Jul-20 18:33N 58°59' E 010°41'1717.4
2014-Jul-20 17:33N 59°17' E 010°36'1717.2
2014-Jul-20 16:33N 59°34' E 010°37'2014.8
2014-Jul-20 15:13N 59°54' E 010°41'2 3.0
2014-Jul-20 14:33N 59°54' E 010°45'0 0.0
2014-Jul-20 13:29N 59°54' E 010°45'0 0.0
2014-Jul-20 12:29N 59°54' E 010°45'0 0.0
2014-Jul-20 11:29N 59°54' E 010°45'0 0.0
2014-Jul-20 10:29N 59°54' E 010°45'0 0.0
2014-Jul-20 09:32N 59°54' E 010°45'0 0.0
2014-Jul-20 08:17N 59°54' E 010°45'0 0.2
2014-Jul-20 07:33N 59°54' E 010°45'2713.3
2014-Jul-20 05:30N 59°27' E 010°34'1516.2
2014-Jul-20 04:33N 59°12' E 010°39'1716.7
2014-Jul-20 03:33N 58°56' E 010°43'5016.4
2014-Jul-20 00:30N 58°07' E 011°07'1616.7
2014-Jul-19 23:33N 57°52' E 011°16'1615.9
2014-Jul-19 22:33N 57°37' E 011°25'1615.9
2014-Jul-19 21:33N 57°22' E 011°34'1616.4
2014-Jul-19 20:33N 57°06' E 011°42'1716.1
2014-Jul-19 19:28N 56°50' E 011°52'1516.2
2014-Jul-19 18:33N 56°35' E 011°59'1616.0
2014-Jul-19 17:33N 56°22' E 012°14'1716.7
2014-Jul-19 16:33N 56°08' E 012°32'1716.6
2014-Jul-19 15:33N 55°53' E 012°44'1211.9
2014-Jul-19 14:33N 55°42' E 012°36'0 0.0
2014-Jul-19 13:34N 55°42' E 012°36'0 0.0
2014-Jul-19 12:34N 55°42' E 012°36'0 0.0
2014-Jul-19 11:34N 55°42' E 012°36'0 0.0
2014-Jul-19 10:34N 55°42' E 012°36'0 0.0
2014-Jul-19 09:34N 55°42' E 012°36'0 0.0
2014-Jul-19 08:31N 55°42' E 012°36'0 0.3
2014-Jul-19 07:33N 55°42' E 012°36'1211.9
2014-Jul-19 06:33N 55°54' E 012°40'1413.9
2014-Jul-19 05:33N 56°07' E 012°31'1515.2
2014-Jul-19 04:33N 56°21' E 012°22'1615.8
2014-Jul-19 03:33N 56°37' E 012°16'1616.4
2014-Jul-19 02:33N 56°53' E 012°09'1716.6
2014-Jul-19 01:33N 57°08' E 011°57'1616.6
2014-Jul-19 00:33N 57°22' E 011°40'1717.2
2014-Jul-18 23:33N 57°37' E 011°26'1817.5
2014-Jul-18 22:33N 57°54' E 011°14'1717.0
2014-Jul-18 21:33N 58°10' E 011°05'4216.7
2014-Jul-18 19:04N 58°50' E 010°45'917.2
2014-Jul-18 18:33N 58°59' E 010°42'1717.2
2014-Jul-18 17:33N 59°16' E 010°36'1816.6
2014-Jul-18 16:30N 59°34' E 010°37'1914.8
2014-Jul-18 15:12N 59°53' E 010°39'3 4.6
2014-Jul-18 14:33N 59°54' E 010°45'0 0.0
2014-Jul-18 13:28N 59°54' E 010°45'0 0.0
2014-Jul-18 12:28N 59°54' E 010°45'0 0.0
2014-Jul-18 11:31N 59°54' E 010°45'0 0.0
2014-Jul-18 10:31N 59°54' E 010°45'0 0.0
2014-Jul-18 09:31N 59°54' E 010°45'0 0.0
2014-Jul-18 08:31N 59°54' E 010°45'0 0.2
2014-Jul-18 07:33N 59°54' E 010°45'2813.0
2014-Jul-18 05:23N 59°26' E 010°34'1416.3
2014-Jul-18 04:33N 59°13' E 010°39'1615.7
2014-Jul-18 03:33N 58°57' E 010°42'5516.4
2014-Jul-18 00:11N 58°04' E 011°08'1016.7
2014-Jul-17 23:33N 57°54' E 011°14'1615.9
2014-Jul-17 22:33N 57°39' E 011°23'1616.1
2014-Jul-17 21:33N 57°24' E 011°32'1616.1
2014-Jul-17 20:33N 57°08' E 011°41'1615.9
2014-Jul-17 19:33N 56°53' E 011°52'1515.4
2014-Jul-17 18:33N 56°40' E 012°07'1616.2
2014-Jul-17 17:33N 56°25' E 012°18'1616.1
2014-Jul-17 16:33N 56°11' E 012°30'1616.0
2014-Jul-17 15:33N 55°57' E 012°43'1414.3
2014-Jul-17 14:33N 55°43' E 012°37'1 0.9
2014-Jul-17 13:32N 55°42' E 012°36'0 0.0
2014-Jul-17 12:32N 55°42' E 012°36'0 0.0
2014-Jul-17 11:33N 55°42' E 012°36'0 0.0
2014-Jul-17 10:32N 55°42' E 012°36'0 0.0
2014-Jul-17 09:32N 55°42' E 012°36'0 0.0
2014-Jul-17 08:33N 55°42' E 012°36'0 0.2
2014-Jul-17 07:33N 55°42' E 012°36'1110.5
2014-Jul-17 06:33N 55°53' E 012°40'1414.3
2014-Jul-17 05:33N 56°06' E 012°33'1616.3
2014-Jul-17 04:33N 56°21' E 012°21'1716.7
2014-Jul-17 03:33N 56°37' E 012°13'1716.9
2014-Jul-17 02:33N 56°53' E 012°04'1716.8
2014-Jul-17 01:33N 57°09' E 011°55'1716.7
2014-Jul-17 00:33N 57°24' E 011°39'1817.8
2014-Jul-16 23:34N 57°40' E 011°26'1716.9
2014-Jul-16 22:33N 57°56' E 011°13'1615.9
2014-Jul-16 21:33N 58°11' E 011°03'4715.8
2014-Jul-16 18:33N 58°57' E 010°42'1716.7
2014-Jul-16 17:33N 59°13' E 010°37'1616.4
2014-Jul-16 16:33N 59°30' E 010°34'2512.6
2014-Jul-16 14:33N 59°54' E 010°45'0 0.0
2014-Jul-16 13:33N 59°54' E 010°45'0 0.0
2014-Jul-16 12:25N 59°54' E 010°45'0 0.0
2014-Jul-16 11:21N 59°54' E 010°45'0 0.0
2014-Jul-16 10:24N 59°54' E 010°45'0 0.0
2014-Jul-16 09:28N 59°54' E 010°45'0 0.0
2014-Jul-16 08:28N 59°54' E 010°45'0 0.4
2014-Jul-16 07:33N 59°54' E 010°44'1813.1
2014-Jul-16 06:11N 59°36' E 010°37'1117.5
2014-Jul-16 05:33N 59°26' E 010°34'1818.2
2014-Jul-16 04:33N 59°08' E 010°40'1717.1
2014-Jul-16 03:33N 58°51' E 010°44'5217.2
2014-Jul-16 00:33N 58°01' E 011°12'1717.0
2014-Jul-15 23:33N 57°45' E 011°21'1716.6
2014-Jul-15 22:33N 57°29' E 011°29'1716.9
2014-Jul-15 21:33N 57°13' E 011°38'1616.4
2014-Jul-15 20:33N 56°57' E 011°48'1615.6
2014-Jul-15 19:33N 56°44' E 012°03'1716.7
2014-Jul-15 18:33N 56°29' E 012°15'1716.9
2014-Jul-15 17:33N 56°13' E 012°28'1716.7
2014-Jul-15 16:33N 55°59' E 012°42'1615.5
2014-Jul-15 15:33N 55°43' E 012°39'2 2.0
2014-Jul-15 14:33N 55°42' E 012°36'0 0.0
2014-Jul-15 13:31N 55°42' E 012°36'0 0.0
2014-Jul-15 12:31N 55°42' E 012°36'0 0.0
2014-Jul-15 11:31N 55°42' E 012°36'0 0.0
2014-Jul-15 10:31N 55°42' E 012°36'0 0.0
2014-Jul-15 09:31N 55°42' E 012°36'0 0.0
2014-Jul-15 08:31N 55°42' E 012°36'0 0.3
2014-Jul-15 07:34N 55°42' E 012°36'1111.2
2014-Jul-15 06:33N 55°53' E 012°40'1413.6
2014-Jul-15 05:33N 56°06' E 012°33'1515.2
2014-Jul-15 04:34N 56°20' E 012°22'1615.5
2014-Jul-15 03:31N 56°36' E 012°13'1616.1
2014-Jul-15 02:33N 56°51' E 012°05'1616.7
2014-Jul-15 01:34N 57°06' E 011°56'1716.5
2014-Jul-15 00:33N 57°21' E 011°43'1616.5
2014-Jul-14 23:34N 57°36' E 011°29'1717.0
2014-Jul-14 22:33N 57°52' E 011°18'1717.0
2014-Jul-14 21:33N 58°08' E 011°07'2216.8
2014-Jul-14 20:16N 58°29' E 010°55'2916.7
2014-Jul-14 18:33N 58°56' E 010°43'1717.0
2014-Jul-14 17:33N 59°13' E 010°37'1716.7
2014-Jul-14 16:33N 59°30' E 010°34'2512.3
2014-Jul-14 14:34N 59°54' E 010°45'0 0.2
2014-Jul-14 13:27N 59°54' E 010°45'0 0.0
2014-Jul-14 12:15N 59°54' E 010°45'0 0.0
2014-Jul-14 11:30N 59°54' E 010°45'0 0.0
2014-Jul-14 10:33N 59°54' E 010°45'0 0.0
2014-Jul-14 09:30N 59°54' E 010°45'0 0.0
2014-Jul-14 08:33N 59°54' E 010°45'1 0.6
2014-Jul-14 07:33N 59°54' E 010°43'1812.3
2014-Jul-14 06:05N 59°36' E 010°38'815.5
2014-Jul-14 05:33N 59°28' E 010°34'1616.1
2014-Jul-14 04:33N 59°12' E 010°39'1616.1
2014-Jul-14 03:33N 58°56' E 010°42'5116.4
2014-Jul-14 00:27N 58°07' E 011°06'1516.9
2014-Jul-13 23:33N 57°53' E 011°15'1716.7
2014-Jul-13 22:33N 57°37' E 011°24'1616.5
2014-Jul-13 21:33N 57°21' E 011°34'1616.5
2014-Jul-13 20:33N 57°05' E 011°43'1615.7
2014-Jul-13 19:33N 56°51' E 011°55'1615.5
2014-Jul-13 18:33N 56°37' E 012°09'1615.7
2014-Jul-13 17:33N 56°23' E 012°20'1616.1
2014-Jul-13 16:33N 56°08' E 012°32'1615.9
2014-Jul-13 15:33N 55°54' E 012°44'1312.9
2014-Jul-13 14:33N 55°42' E 012°36'0 0.0
2014-Jul-13 13:33N 55°42' E 012°36'0 0.0
2014-Jul-13 12:33N 55°42' E 012°36'0 0.0
2014-Jul-13 11:33N 55°42' E 012°36'0 0.0
2014-Jul-13 10:33N 55°42' E 012°36'0 0.0
2014-Jul-13 09:33N 55°42' E 012°36'0 0.0
2014-Jul-13 08:33N 55°42' E 012°36'  

Dump ship's entire track history